createdAt,value
2023-05-13T06:08:46.156Z,3.88
2023-05-13T06:11:12.759Z,3.90
2023-05-13T06:13:39.492Z,3.65
2023-05-13T06:16:06.216Z,3.67
2023-05-13T06:18:32.882Z,4.00
2023-05-13T06:20:59.469Z,3.90
2023-05-13T06:23:26.037Z,3.97
2023-05-13T06:25:52.902Z,3.72
2023-05-13T06:28:19.505Z,4.13
2023-05-13T06:30:46.271Z,4.03
2023-05-13T06:33:13.047Z,3.63
2023-05-13T06:35:39.725Z,4.10
2023-05-13T06:38:06.429Z,3.78
2023-05-13T06:40:33.245Z,3.65
2023-05-13T06:42:59.832Z,3.83
2023-05-13T06:45:26.417Z,3.80
2023-05-13T06:47:53.769Z,3.53
2023-05-13T06:50:20.657Z,3.75
2023-05-13T06:52:47.587Z,3.42
2023-05-13T06:55:14.813Z,3.50
2023-05-13T06:57:43.714Z,4.05
2023-05-13T07:00:11.061Z,3.90
2023-05-13T07:02:37.811Z,3.83
2023-05-13T07:05:05.420Z,4.30
2023-05-13T07:07:32.056Z,3.63
2023-05-13T07:09:58.702Z,3.53
2023-05-13T07:12:25.424Z,3.70
2023-05-13T07:14:52.222Z,3.58
2023-05-13T07:17:18.832Z,3.28
2023-05-13T07:19:45.564Z,3.45
2023-05-13T07:22:12.203Z,2.95
2023-05-13T07:24:38.826Z,3.30
2023-05-13T07:27:05.725Z,3.20
2023-05-13T07:29:32.476Z,3.50
2023-05-13T07:32:06.386Z,3.42
2023-05-13T07:34:32.983Z,3.30
2023-05-13T07:36:59.701Z,3.67
2023-05-13T07:39:26.920Z,3.05
2023-05-13T07:41:53.644Z,2.90
2023-05-13T07:44:20.408Z,3.05
2023-05-13T07:46:47.856Z,3.08
2023-05-13T07:49:14.631Z,2.78
2023-05-13T07:51:41.977Z,3.15
2023-05-13T07:54:09.547Z,2.80
2023-05-13T07:56:37.946Z,2.90
2023-05-13T07:59:05.126Z,2.83
2023-05-13T08:01:32.101Z,3.63
2023-05-13T08:03:59.016Z,2.95
2023-05-13T08:06:25.977Z,2.60
2023-05-13T08:08:52.587Z,3.38
2023-05-13T08:11:21.240Z,3.20
2023-05-13T08:13:47.790Z,3.30
2023-05-13T08:16:14.406Z,2.90
2023-05-13T08:18:41.156Z,3.15
2023-05-13T08:21:07.816Z,3.05
2023-05-13T08:23:44.866Z,2.88
2023-05-13T08:26:13.035Z,2.90
2023-05-13T08:28:39.740Z,3.25
2023-05-13T08:31:06.447Z,2.53
2023-05-13T08:33:33.376Z,2.90
2023-05-13T08:36:00.904Z,2.90
2023-05-13T08:38:27.593Z,2.60
2023-05-13T08:40:54.143Z,3.20
2023-05-13T08:43:23.510Z,3.28
2023-05-13T08:45:53.279Z,3.03
2023-05-13T08:48:20.508Z,2.95
2023-05-13T08:50:47.796Z,3.53
2023-05-13T08:53:18.242Z,2.90
2023-05-13T08:55:45.317Z,3.38
2023-05-13T08:58:12.383Z,3.20
2023-05-13T09:00:39.718Z,3.10
2023-05-13T09:03:06.981Z,2.97
2023-05-13T09:05:35.646Z,3.05
2023-05-13T09:08:18.185Z,3.15
2023-05-13T09:10:44.859Z,3.28
2023-05-13T09:13:13.045Z,3.28
2023-05-13T09:15:42.336Z,3.00
2023-05-13T09:18:09.295Z,3.60
2023-05-13T09:20:36.501Z,3.42
2023-05-13T09:23:07.864Z,3.00
2023-05-13T09:25:34.845Z,2.63
2023-05-13T09:28:03.760Z,3.80
2023-05-13T09:30:38.412Z,2.97
2023-05-13T09:33:09.923Z,2.85
2023-05-13T09:35:44.749Z,2.80
2023-05-13T09:38:20.732Z,3.22
2023-05-13T09:41:02.401Z,2.97
2023-05-13T09:43:32.733Z,3.00
2023-05-13T09:46:04.122Z,3.00
2023-05-13T09:48:32.678Z,3.20
2023-05-13T09:50:59.622Z,3.10
2023-05-13T09:53:27.293Z,3.00
2023-05-13T09:55:56.004Z,2.92
2023-05-13T09:58:24.594Z,3.03
2023-05-13T10:00:52.436Z,2.88
2023-05-13T10:03:19.217Z,2.85
2023-05-13T10:05:46.145Z,2.53
2023-05-13T10:08:14.240Z,2.83
2023-05-13T10:10:42.462Z,2.63
2023-05-13T10:13:13.209Z,2.63
2023-05-13T10:15:49.981Z,2.63
2023-05-13T10:18:17.816Z,2.70
2023-05-13T10:20:45.261Z,2.70
2023-05-13T10:23:12.302Z,2.90
2023-05-13T10:25:39.097Z,3.20
2023-05-13T10:28:05.758Z,2.80
2023-05-13T10:30:35.903Z,2.53
2023-05-13T10:33:03.839Z,2.53
2023-05-13T10:35:37.098Z,2.88
2023-05-13T10:38:20.518Z,2.53
2023-05-13T10:41:09.382Z,2.80
2023-05-13T10:43:37.314Z,2.70
2023-05-13T10:46:11.290Z,2.92
2023-05-13T10:48:49.702Z,2.63
2023-05-13T10:51:18.294Z,2.92
2023-05-13T10:53:49.114Z,2.97
2023-05-13T10:56:19.309Z,2.67
2023-05-13T10:59:04.465Z,2.70
2023-05-13T11:01:44.065Z,2.30
2023-05-13T11:04:19.469Z,2.33
2023-05-13T11:06:48.090Z,2.40
2023-05-13T11:09:29.959Z,2.60
2023-05-13T11:11:58.571Z,2.45
2023-05-13T11:14:26.910Z,2.72
2023-05-13T11:16:54.562Z,2.60
2023-05-13T11:19:27.994Z,2.55
2023-05-13T11:22:13.996Z,2.97
2023-05-13T11:24:41.489Z,2.08
2023-05-13T11:27:21.043Z,2.92
2023-05-13T11:29:53.002Z,2.60
2023-05-13T11:32:51.236Z,2.63
2023-05-13T11:35:25.838Z,2.58
2023-05-13T11:37:52.760Z,2.50
2023-05-13T11:40:27.185Z,2.72
2023-05-13T11:42:54.428Z,2.65
2023-05-13T11:45:22.970Z,2.78
2023-05-13T11:47:50.402Z,2.70
2023-05-13T11:50:25.389Z,2.60
2023-05-13T11:52:57.224Z,2.70
2023-05-13T11:55:32.086Z,2.33
2023-05-13T11:57:59.372Z,2.72
2023-05-13T12:00:33.611Z,2.80
2023-05-13T12:03:03.206Z,2.83
2023-05-13T12:05:30.416Z,2.53
2023-05-13T12:07:58.329Z,2.45
2023-05-13T12:10:26.716Z,2.45
2023-05-13T12:12:53.585Z,8.65
2023-05-13T12:15:21.894Z,2.47
2023-05-13T12:17:49.659Z,2.70
2023-05-13T12:20:17.301Z,2.75
2023-05-13T12:22:43.860Z,2.83
2023-05-13T12:25:35.493Z,2.80
2023-05-13T12:28:18.853Z,3.10
2023-05-13T12:31:02.659Z,2.80
2023-05-13T12:33:34.016Z,2.83
2023-05-13T12:36:20.114Z,2.65
2023-05-13T12:39:11.348Z,2.67
2023-05-13T12:41:40.447Z,2.60
2023-05-13T12:44:14.182Z,2.67
2023-05-13T12:47:01.806Z,2.92
2023-05-13T12:49:28.553Z,2.60
2023-05-13T12:51:56.686Z,2.60
2023-05-13T12:54:23.312Z,2.72
2023-05-13T12:56:49.873Z,2.65
2023-05-13T12:59:19.382Z,2.60
2023-05-13T13:01:48.035Z,2.53
2023-05-13T13:04:16.664Z,2.70
2023-05-13T13:06:43.600Z,2.42
2023-05-13T13:09:10.320Z,2.40
2023-05-13T13:11:36.907Z,2.70
2023-05-13T13:14:03.477Z,2.78
2023-05-13T13:16:30.411Z,3.00
2023-05-13T13:19:01.494Z,2.78
2023-05-13T13:21:28.614Z,2.53
2023-05-13T13:23:55.229Z,2.58
2023-05-13T13:26:23.145Z,2.80
2023-05-13T13:28:49.763Z,2.72
2023-05-13T13:31:16.436Z,2.63
2023-05-13T13:33:43.040Z,3.10
2023-05-13T13:36:09.614Z,2.80
2023-05-13T13:38:36.162Z,2.70
2023-05-13T13:41:02.772Z,3.00
2023-05-13T13:43:29.372Z,3.08
2023-05-13T13:45:56.019Z,2.80
2023-05-13T13:48:22.708Z,2.92
2023-05-13T13:50:50.651Z,2.60
2023-05-13T13:53:18.764Z,2.40
2023-05-13T13:55:45.709Z,2.67
2023-05-13T13:58:12.290Z,2.92
2023-05-13T14:00:38.898Z,2.70
2023-05-13T14:03:05.823Z,2.63
2023-05-13T14:05:32.488Z,2.42
2023-05-13T14:07:59.077Z,2.50
2023-05-13T14:10:25.736Z,3.10
2023-05-13T14:12:53.218Z,3.10
2023-05-13T14:15:19.824Z,2.78
2023-05-13T14:17:46.478Z,2.95
2023-05-13T14:20:13.144Z,3.08
2023-05-13T14:22:39.747Z,3.00
2023-05-13T14:25:06.647Z,2.95
2023-05-13T14:27:36.193Z,3.20
2023-05-13T14:30:02.857Z,3.03
2023-05-13T14:32:29.490Z,2.90
2023-05-13T14:34:56.340Z,2.92
2023-05-13T14:37:22.937Z,3.00
2023-05-13T14:39:50.220Z,3.20
2023-05-13T14:42:17.862Z,2.47
2023-05-13T14:44:44.431Z,2.85
2023-05-13T14:47:11.057Z,2.95
2023-05-13T14:49:37.683Z,3.25
2023-05-13T14:52:04.418Z,2.88
2023-05-13T14:54:35.482Z,3.00
2023-05-13T14:57:03.265Z,3.28
2023-05-13T14:59:30.169Z,3.10
2023-05-13T15:01:56.779Z,3.05
2023-05-13T15:04:23.442Z,3.25
2023-05-13T15:06:50.977Z,3.20
2023-05-13T15:09:19.636Z,2.85
2023-05-13T15:11:46.253Z,3.45
2023-05-13T15:14:12.892Z,3.72
2023-05-13T15:16:39.605Z,3.53
2023-05-13T15:19:07.697Z,3.03
2023-05-13T15:21:34.466Z,2.90
2023-05-13T15:24:01.058Z,2.80
2023-05-13T15:26:27.623Z,3.05
2023-05-13T15:28:54.279Z,2.95
2023-05-13T15:31:20.920Z,3.03
2023-05-13T15:33:47.537Z,3.25
2023-05-13T15:36:14.086Z,3.08
2023-05-13T15:38:40.724Z,3.15
2023-05-13T15:41:07.474Z,3.30
2023-05-13T15:43:34.380Z,3.20
2023-05-13T15:46:01.404Z,3.47
2023-05-13T15:48:29.091Z,3.28
2023-05-13T15:50:55.689Z,3.53
2023-05-13T15:53:22.261Z,3.58
2023-05-13T15:55:48.876Z,3.85
2023-05-13T15:58:15.449Z,4.68
2023-05-13T16:00:42.101Z,3.70
2023-05-13T16:03:08.816Z,4.28
2023-05-13T16:05:36.340Z,3.70
2023-05-13T16:08:02.957Z,3.60
2023-05-13T16:10:29.613Z,3.60
2023-05-13T16:12:56.158Z,3.95
2023-05-13T16:15:22.814Z,4.25
2023-05-13T16:17:49.456Z,4.35
2023-05-13T16:20:16.149Z,4.65
2023-05-13T16:22:43.355Z,4.32
2023-05-13T16:25:11.512Z,4.50
2023-05-13T16:27:39.455Z,4.40
2023-05-13T16:30:07.444Z,4.15
2023-05-13T16:32:34.842Z,4.55
2023-05-13T16:35:01.857Z,4.60
2023-05-13T16:37:29.020Z,4.50
2023-05-13T16:39:55.683Z,4.10
2023-05-13T16:42:22.674Z,4.10
2023-05-13T16:44:49.291Z,4.43
2023-05-13T16:47:15.895Z,4.18
2023-05-13T16:49:42.687Z,3.75
2023-05-13T16:52:09.356Z,3.50
2023-05-13T16:54:35.922Z,3.70
2023-05-13T16:57:02.526Z,3.75
2023-05-13T16:59:29.134Z,3.42
2023-05-13T17:01:55.882Z,3.75
2023-05-13T17:04:22.542Z,3.20
2023-05-13T17:06:49.172Z,3.65
2023-05-13T17:09:16.187Z,3.67
2023-05-13T17:11:42.811Z,3.85
2023-05-13T17:14:09.507Z,3.63
2023-05-13T17:16:36.195Z,3.92
2023-05-13T17:19:02.981Z,3.92
2023-05-13T17:21:29.811Z,4.10
2023-05-13T17:23:56.380Z,3.40
2023-05-13T17:26:23.171Z,3.42
2023-05-13T17:28:49.822Z,3.30
2023-05-13T17:31:16.651Z,3.65
2023-05-13T17:33:43.422Z,3.60
2023-05-13T17:36:10.785Z,3.60
2023-05-13T17:38:38.166Z,3.53
2023-05-13T17:41:05.213Z,3.42
2023-05-13T17:43:31.852Z,3.10
2023-05-13T17:45:58.789Z,3.60
2023-05-13T17:48:26.674Z,3.40
2023-05-13T17:50:53.411Z,3.40
2023-05-13T17:53:20.662Z,3.78
2023-05-13T17:55:48.606Z,3.90
2023-05-13T17:58:16.271Z,3.20
2023-05-13T18:00:43.107Z,3.58
2023-05-13T18:03:09.705Z,3.65
2023-05-13T18:05:36.474Z,4.00
2023-05-13T18:08:03.105Z,3.30
2023-05-13T18:10:29.780Z,3.50
2023-05-13T18:12:56.349Z,3.38
2023-05-13T18:15:23.326Z,3.80
2023-05-13T18:17:50.564Z,3.60
2023-05-13T18:20:18.029Z,4.05
2023-05-13T18:22:44.635Z,3.72
2023-05-13T18:25:11.504Z,4.35
2023-05-13T18:27:38.172Z,3.83
2023-05-13T18:30:06.111Z,4.00
2023-05-13T18:32:32.760Z,3.67
2023-05-13T18:34:59.419Z,3.70
2023-05-13T18:37:26.105Z,3.50
2023-05-13T18:39:52.777Z,3.72
2023-05-13T18:42:19.358Z,3.83
2023-05-13T18:44:45.930Z,3.60
2023-05-13T18:47:12.498Z,3.65
2023-05-13T18:49:39.217Z,3.30
2023-05-13T18:52:06.232Z,4.63
2023-05-13T18:54:32.872Z,4.20
2023-05-13T18:56:59.517Z,3.67
2023-05-13T18:59:26.172Z,3.88
2023-05-13T19:01:53.065Z,3.58
2023-05-13T19:04:19.905Z,3.47
2023-05-13T19:06:46.613Z,3.67
2023-05-13T19:09:13.189Z,3.60
2023-05-13T19:11:39.779Z,3.83
2023-05-13T19:14:06.690Z,4.28
2023-05-13T19:16:33.409Z,3.95
2023-05-13T19:19:00.091Z,3.67
2023-05-13T19:21:26.718Z,4.00
2023-05-13T19:23:53.293Z,3.72
2023-05-13T19:26:19.995Z,4.07
2023-05-13T19:28:47.154Z,4.68
2023-05-13T19:31:13.753Z,4.30
2023-05-13T19:33:40.909Z,4.35
2023-05-13T19:36:08.803Z,4.40
2023-05-13T19:38:35.571Z,7.90
2023-05-13T19:41:02.626Z,5.38
2023-05-13T19:43:29.206Z,5.88
2023-05-13T19:45:57.464Z,5.13
2023-05-13T19:48:24.041Z,5.00
2023-05-13T19:50:53.287Z,5.90
2023-05-13T19:53:21.590Z,5.40
2023-05-13T19:55:48.221Z,4.95
2023-05-13T19:58:15.184Z,5.78
2023-05-13T20:00:43.840Z,5.25
2023-05-13T20:03:10.921Z,5.60
2023-05-13T20:05:39.249Z,5.82
2023-05-13T20:08:06.261Z,5.93
2023-05-13T20:10:35.137Z,6.03
2023-05-13T20:13:04.042Z,6.70
2023-05-13T20:15:31.630Z,6.53
2023-05-13T20:17:58.445Z,6.65
2023-05-13T20:20:27.810Z,8.93
2023-05-13T20:22:54.368Z,9.35
2023-05-13T20:25:21.547Z,10.35
2023-05-13T20:27:48.122Z,8.35
2023-05-13T20:30:16.368Z,8.18
2023-05-13T20:32:42.936Z,8.23
2023-05-13T20:35:10.130Z,8.38
2023-05-13T20:37:36.775Z,7.93
2023-05-13T20:40:04.507Z,8.38
2023-05-13T20:42:31.133Z,8.07
2023-05-13T20:44:57.693Z,7.53
2023-05-13T20:47:24.311Z,7.07
2023-05-13T20:49:50.893Z,7.57
2023-05-13T20:52:17.619Z,7.40
2023-05-13T20:54:44.344Z,7.60
2023-05-13T20:57:11.172Z,7.20
2023-05-13T20:59:37.787Z,7.70
2023-05-13T21:02:04.573Z,7.57
2023-05-13T21:04:31.320Z,7.65
2023-05-13T21:06:57.967Z,7.43
2023-05-13T21:09:24.538Z,7.75
2023-05-13T21:11:51.139Z,7.95
2023-05-13T21:14:17.732Z,7.82
2023-05-13T21:16:44.358Z,8.40
2023-05-13T21:19:22.102Z,8.30
2023-05-13T21:21:48.778Z,7.78
2023-05-13T21:24:18.982Z,7.93
2023-05-13T21:26:46.553Z,8.55
2023-05-13T21:29:13.179Z,8.10
2023-05-13T21:31:39.766Z,8.60
2023-05-13T21:34:06.434Z,8.40
2023-05-13T21:36:33.786Z,8.80
2023-05-13T21:39:00.504Z,8.13
2023-05-13T21:41:27.224Z,7.90
2023-05-13T21:43:53.818Z,8.20
2023-05-13T21:46:20.395Z,7.88
2023-05-13T21:48:47.023Z,8.27
2023-05-13T21:51:13.879Z,8.10
2023-05-13T21:53:43.837Z,9.10
2023-05-13T21:56:13.136Z,8.30
2023-05-13T21:58:39.703Z,8.13
2023-05-13T22:01:06.838Z,8.15
2023-05-13T22:03:34.121Z,7.85
2023-05-13T22:06:02.334Z,8.30
2023-05-13T22:08:30.210Z,7.70
2023-05-13T22:10:56.857Z,7.55
2023-05-13T22:13:24.469Z,8.40
2023-05-13T22:15:51.459Z,8.52
2023-05-13T22:18:18.280Z,8.65
2023-05-13T22:20:45.068Z,8.23
2023-05-13T22:23:11.628Z,8.98
2023-05-13T22:25:38.184Z,8.15
2023-05-13T22:28:04.784Z,8.23
2023-05-13T22:30:31.349Z,9.30
2023-05-13T22:32:57.996Z,9.25
2023-05-13T22:35:24.570Z,9.15
2023-05-13T22:37:52.597Z,8.23
2023-05-13T22:40:19.293Z,9.13
2023-05-13T22:42:45.952Z,9.57
2023-05-13T22:45:12.612Z,9.80
2023-05-13T22:47:39.249Z,11.10
2023-05-13T22:50:06.486Z,10.48
2023-05-13T22:52:33.038Z,11.15
2023-05-13T22:54:59.600Z,11.05
2023-05-13T22:57:26.993Z,11.73
2023-05-13T22:59:53.575Z,11.88
2023-05-13T23:02:20.220Z,11.70
2023-05-13T23:04:46.777Z,11.55
2023-05-13T23:07:13.342Z,11.50
2023-05-13T23:09:39.957Z,10.90
2023-05-13T23:12:07.037Z,10.38
2023-05-13T23:14:33.943Z,10.55
2023-05-13T23:17:00.596Z,10.70
2023-05-13T23:19:27.306Z,10.20
2023-05-13T23:21:53.895Z,9.65
2023-05-13T23:24:20.944Z,9.68
2023-05-13T23:26:48.591Z,9.38
2023-05-13T23:29:15.211Z,9.30
2023-05-13T23:31:41.823Z,10.02
2023-05-13T23:34:08.803Z,10.20
2023-05-13T23:36:35.632Z,9.80
2023-05-13T23:39:02.265Z,9.05
2023-05-13T23:41:28.880Z,9.75
2023-05-13T23:43:55.463Z,9.50
2023-05-13T23:46:22.212Z,9.75
2023-05-13T23:48:48.974Z,10.13
2023-05-13T23:51:15.525Z,9.83
2023-05-13T23:53:42.093Z,9.10
2023-05-13T23:56:08.649Z,9.60
2023-05-13T23:58:35.281Z,9.77
